Time;durP1;ratioP1;P1;durP2;ratioP2;P2;SDS_P1;SDS_P2;PMS_P1;PMS_P2;Temp;Humidity;BMP_temperature;BMP_pressure;BME280_temperature;BME280_humidity;BME280_pressure;Samples;Min_cycle;Max_cycle;Signal;HPM_P1;HPM_P2
2021/05/30 00:00:44;;;;;;;9.60;8.38;;;17.60;51.80;;;;;;1480438;40;20024;-63
2021/05/30 00:02:05;;;;;;;11.60;7.93;;;17.60;51.80;;;;;;1481759;40;20576;-63
2021/05/30 00:03:26;;;;;;;9.05;7.70;;;17.50;51.80;;;;;;1481556;40;20236;-63
2021/05/30 00:04:47;;;;;;;8.75;7.90;;;17.50;51.90;;;;;;1481643;40;20029;-63
2021/05/30 00:06:08;;;;;;;9.40;8.45;;;17.50;51.90;;;;;;1480465;40;20036;-63
2021/05/30 00:07:29;;;;;;;10.55;8.60;;;17.50;52.10;;;;;;1477003;40;20271;-63
2021/05/30 00:08:53;;;;;;;9.88;7.90;;;17.50;52.20;;;;;;1481348;40;20350;-63
2021/05/30 00:10:15;;;;;;;9.50;8.27;;;17.40;52.10;;;;;;1482910;40;20036;-63
2021/05/30 00:11:37;;;;;;;8.85;7.68;;;17.40;52.30;;;;;;1481733;40;20048;-63
2021/05/30 00:12:57;;;;;;;8.60;7.65;;;17.40;52.20;;;;;;1482842;40;20132;-63
2021/05/30 00:14:18;;;;;;;8.77;7.80;;;17.40;52.20;;;;;;1482573;40;20338;-63
2021/05/30 00:15:39;;;;;;;9.38;8.32;;;17.40;52.10;;;;;;1480661;40;20522;-63
2021/05/30 00:17:01;;;;;;;9.55;7.72;;;17.30;52.10;;;;;;1481351;40;20074;-63
2021/05/30 00:18:22;;;;;;;9.00;8.10;;;17.30;52.20;;;;;;1481594;40;20025;-63
2021/05/30 00:19:44;;;;;;;9.25;8.25;;;17.30;52.30;;;;;;1481704;40;20045;-63
2021/05/30 00:21:07;;;;;;;11.20;9.05;;;17.30;52.50;;;;;;1483505;40;20039;-63
2021/05/30 00:22:27;;;;;;;9.57;8.48;;;17.30;52.40;;;;;;1481779;40;20358;-63
2021/05/30 00:23:48;;;;;;;9.95;8.95;;;17.30;52.30;;;;;;1482715;40;20068;-63
2021/05/30 00:25:10;;;;;;;12.15;9.88;;;17.20;52.20;;;;;;1481991;40;20420;-63
2021/05/30 00:26:31;;;;;;;10.60;8.85;;;17.20;52.40;;;;;;1482970;40;20043;-63
2021/05/30 00:27:52;;;;;;;11.23;9.32;;;17.20;52.50;;;;;;1482261;40;20037;-63
2021/05/30 00:29:13;;;;;;;9.57;8.55;;;17.10;52.50;;;;;;1482581;40;20045;-63
2021/05/30 00:30:34;;;;;;;10.27;9.20;;;17.10;52.60;;;;;;1483091;40;20041;-63
2021/05/30 00:31:55;;;;;;;9.55;8.55;;;17.10;53.20;;;;;;1480434;40;20040;-63
2021/05/30 00:33:16;;;;;;;9.70;8.68;;;17.10;52.80;;;;;;1482652;40;20521;-63
2021/05/30 00:34:37;;;;;;;9.23;8.32;;;17.10;52.80;;;;;;1482444;40;20028;-63
2021/05/30 00:35:57;;;;;;;10.18;8.93;;;17.00;52.90;;;;;;1482060;40;20145;-63
2021/05/30 00:37:18;;;;;;;9.85;8.75;;;17.00;53.00;;;;;;1481429;40;20047;-63
2021/05/30 00:38:39;;;;;;;10.00;8.98;;;17.00;53.10;;;;;;1483456;40;20029;-63
2021/05/30 00:40:00;;;;;;;12.23;9.48;;;17.00;53.00;;;;;;1481580;40;20792;-63
2021/05/30 00:41:21;;;;;;;9.30;8.15;;;17.00;53.10;;;;;;1481848;40;20376;-63
2021/05/30 00:42:42;;;;;;;10.38;9.18;;;16.90;53.00;;;;;;1482326;40;20077;-63
2021/05/30 00:44:22;;;;;;;9.88;8.88;;;16.90;53.00;;;;;;1481931;40;20032;-62
2021/05/30 00:45:45;;;;;;;10.68;8.32;;;16.90;53.50;;;;;;1481282;40;20040;-63
2021/05/30 00:47:06;;;;;;;11.52;8.88;;;16.90;53.10;;;;;;1481393;40;20032;-63
2021/05/30 00:48:27;;;;;;;11.88;9.25;;;16.90;53.10;;;;;;1479834;40;20362;-63
2021/05/30 00:49:48;;;;;;;11.98;9.32;;;16.90;53.20;;;;;;1482219;40;20606;-62
2021/05/30 00:51:09;;;;;;;12.00;9.68;;;16.80;53.10;;;;;;1481544;40;20470;-63
2021/05/30 00:52:30;;;;;;;12.07;9.65;;;16.90;53.30;;;;;;1483557;40;20064;-63
2021/05/30 00:53:51;;;;;;;11.52;9.38;;;16.80;53.30;;;;;;1478023;40;20036;-63
2021/05/30 00:55:12;;;;;;;9.93;8.65;;;16.80;53.30;;;;;;1481117;40;20044;-63
2021/05/30 00:56:34;;;;;;;10.43;8.95;;;16.80;53.20;;;;;;1482635;40;20571;-63
2021/05/30 00:57:55;;;;;;;10.77;9.05;;;16.80;53.20;;;;;;1483168;40;20035;-63
2021/05/30 00:59:16;;;;;;;12.55;9.93;;;16.80;53.30;;;;;;1480456;40;20035;-63
2021/05/30 01:00:37;;;;;;;12.40;9.43;;;16.70;53.30;;;;;;1482440;40;20020;-63
2021/05/30 01:01:58;;;;;;;10.75;9.65;;;16.70;53.40;;;;;;1482046;40;20065;-65
2021/05/30 01:03:19;;;;;;;11.55;8.82;;;16.70;53.40;;;;;;1482198;40;20126;-63
2021/05/30 01:04:40;;;;;;;11.05;9.45;;;16.70;53.40;;;;;;1482168;40;20370;-63
2021/05/30 01:06:00;;;;;;;11.10;9.13;;;16.70;53.40;;;;;;1482357;40;20029;-62
2021/05/30 01:07:21;;;;;;;12.57;9.25;;;16.70;53.50;;;;;;1483020;40;20036;-63
2021/05/30 01:08:42;;;;;;;9.57;8.60;;;16.70;53.50;;;;;;1481729;40;20017;-63
2021/05/30 01:10:25;;;;;;;11.60;9.23;;;16.70;53.50;;;;;;1482213;40;20048;-63
2021/05/30 01:11:47;;;;;;;10.27;9.05;;;16.70;53.90;;;;;;1479680;40;20047;-63
2021/05/30 01:13:08;;;;;;;11.25;9.50;;;16.70;53.50;;;;;;1481438;40;20054;-63
2021/05/30 01:14:29;;;;;;;10.02;9.02;;;16.60;53.50;;;;;;1482679;40;20242;-63
2021/05/30 01:15:50;;;;;;;10.80;9.60;;;16.60;53.50;;;;;;1476077;40;20031;-64
2021/05/30 01:17:11;;;;;;;10.48;9.07;;;16.60;53.50;;;;;;1478566;40;20033;-63
2021/05/30 01:18:33;;;;;;;11.23;8.98;;;16.70;54.10;;;;;;1482685;40;20063;-63
2021/05/30 01:19:56;;;;;;;11.40;10.07;;;16.60;53.50;;;;;;1481904;40;20029;-63
2021/05/30 01:21:17;;;;;;;11.60;9.57;;;16.60;53.60;;;;;;1478652;40;20021;-63
2021/05/30 01:22:39;;;;;;;12.18;10.07;;;16.60;53.50;;;;;;1482505;40;20012;-63
2021/05/30 01:24:00;;;;;;;12.98;10.20;;;16.50;53.60;;;;;;1477217;40;20037;-63
2021/05/30 01:25:23;;;;;;;11.38;9.77;;;16.50;53.60;;;;;;1481294;40;20072;-62
2021/05/30 01:26:44;;;;;;;14.27;10.02;;;16.50;53.70;;;;;;1480945;40;20378;-62
2021/05/30 01:28:05;;;;;;;14.80;10.50;;;16.50;53.80;;;;;;1482208;40;20055;-63
2021/05/30 01:29:26;;;;;;;14.35;10.85;;;16.50;53.70;;;;;;1482130;40;20118;-63
2021/05/30 01:30:49;;;;;;;13.75;11.13;;;16.50;53.80;;;;;;1481963;40;20028;-62
2021/05/30 01:32:10;;;;;;;13.48;10.63;;;16.50;53.90;;;;;;1481249;40;20540;-63
2021/05/30 01:33:30;;;;;;;13.13;11.02;;;16.50;54.40;;;;;;1482888;40;20032;-62
2021/05/30 01:34:52;;;;;;;12.45;10.75;;;16.50;53.90;;;;;;1483758;40;20032;-63
2021/05/30 01:36:14;;;;;;;12.57;11.00;;;16.50;53.90;;;;;;1481228;40;20452;-62
2021/05/30 01:37:35;;;;;;;11.20;10.05;;;16.40;53.90;;;;;;1481152;40;20025;-63
2021/05/30 01:38:55;;;;;;;14.52;11.27;;;16.40;53.90;;;;;;1483272;40;20076;-63
2021/05/30 01:40:18;;;;;;;12.20;10.93;;;16.40;53.90;;;;;;1482223;40;20092;-63
2021/05/30 01:41:38;;;;;;;12.98;10.52;;;16.40;54.00;;;;;;1481752;40;20040;-63
2021/05/30 01:42:59;;;;;;;12.77;11.27;;;16.40;54.00;;;;;;1481648;40;20045;-63
2021/05/30 01:44:22;;;;;;;11.85;10.43;;;16.40;54.00;;;;;;1481734;40;20029;-63
2021/05/30 01:45:43;;;;;;;13.63;10.75;;;16.40;54.00;;;;;;1481049;40;20032;-63
2021/05/30 01:47:04;;;;;;;14.35;10.40;;;16.40;54.00;;;;;;1478222;40;20056;-63
2021/05/30 01:48:25;;;;;;;15.82;10.88;;;16.40;54.10;;;;;;1482865;40;20146;-63
2021/05/30 01:49:46;;;;;;;13.10;10.45;;;16.30;54.00;;;;;;1482398;40;20060;-62
2021/05/30 01:51:07;;;;;;;14.48;10.73;;;16.30;54.00;;;;;;1482331;40;20129;-62
2021/05/30 01:52:27;;;;;;;12.63;10.45;;;16.30;54.00;;;;;;1481520;40;20033;-63
2021/05/30 01:53:53;;;;;;;12.20;10.50;;;16.30;54.00;;;;;;1481982;40;20055;-63
2021/05/30 01:55:28;;;;;;;13.25;10.85;;;16.30;54.00;;;;;;1481883;40;20286;-63
2021/05/30 01:56:56;;;;;;;14.63;10.82;;;16.30;54.10;;;;;;1482166;40;20028;-62
2021/05/30 01:58:18;;;;;;;11.95;10.32;;;16.30;54.10;;;;;;1482431;40;20049;-63
2021/05/30 01:59:39;;;;;;;11.60;10.25;;;16.30;54.10;;;;;;1483731;40;20032;-63
2021/05/30 02:01:01;;;;;;;12.55;10.65;;;16.20;54.00;;;;;;1481765;40;20033;-62
2021/05/30 02:02:25;;;;;;;12.55;10.48;;;16.20;54.00;;;;;;1481321;40;20124;-63
2021/05/30 02:03:46;;;;;;;13.63;10.55;;;16.20;54.10;;;;;;1480374;40;20278;-63
2021/05/30 02:05:08;;;;;;;12.05;10.50;;;16.20;54.10;;;;;;1483612;40;20036;-63
2021/05/30 02:06:30;;;;;;;12.23;10.80;;;16.20;54.20;;;;;;1481979;40;20040;-63
2021/05/30 02:07:51;;;;;;;12.30;10.90;;;16.20;54.30;;;;;;1481944;40;20032;-63
2021/05/30 02:09:14;;;;;;;12.38;11.00;;;16.20;54.40;;;;;;1481584;40;20491;-63
2021/05/30 02:10:36;;;;;;;13.05;10.80;;;16.10;54.40;;;;;;1482481;40;20331;-63
2021/05/30 02:11:58;;;;;;;13.20;10.95;;;16.10;54.50;;;;;;1482264;40;20037;-62
2021/05/30 02:13:21;;;;;;;12.90;10.82;;;16.10;54.50;;;;;;1482468;40;20051;-62
2021/05/30 02:14:41;;;;;;;11.60;9.85;;;16.10;54.60;;;;;;1483227;40;20355;-62
2021/05/30 02:16:04;;;;;;;13.68;11.02;;;16.10;54.60;;;;;;1479743;40;20036;-63
2021/05/30 02:17:25;;;;;;;13.85;10.90;;;16.10;54.70;;;;;;1481967;40;20356;-63
2021/05/30 02:18:46;;;;;;;14.23;10.63;;;16.10;54.70;;;;;;1482927;39;20033;-63
2021/05/30 02:20:09;;;;;;;12.57;10.90;;;16.00;54.60;;;;;;1482462;40;20041;-63
2021/05/30 02:21:44;;;;;;;11.32;10.02;;;16.00;54.80;;;;;;1481854;40;20027;-63
2021/05/30 02:23:10;;;;;;;11.95;9.95;;;16.00;55.00;;;;;;1483383;40;20035;-62
2021/05/30 02:24:31;;;;;;;13.10;10.63;;;16.00;54.80;;;;;;1481081;40;20033;-63
2021/05/30 02:25:52;;;;;;;11.15;9.77;;;16.00;54.60;;;;;;1483938;40;20039;-62
2021/05/30 02:27:13;;;;;;;11.40;9.77;;;16.00;54.70;;;;;;1482597;40;20073;-63
2021/05/30 02:28:34;;;;;;;12.23;10.93;;;16.00;54.70;;;;;;1481290;40;20119;-63
2021/05/30 02:29:55;;;;;;;14.18;10.45;;;16.00;54.80;;;;;;1482324;40;20186;-63
2021/05/30 02:31:16;;;;;;;12.07;10.02;;;16.00;54.80;;;;;;1483342;40;20139;-62
2021/05/30 02:32:37;;;;;;;12.63;10.75;;;16.00;54.80;;;;;;1483482;40;20027;-63
2021/05/30 02:33:59;;;;;;;12.75;10.98;;;15.90;54.80;;;;;;1480800;40;20036;-62
2021/05/30 02:35:20;;;;;;;13.60;11.30;;;15.90;54.90;;;;;;1481702;40;20292;-62
2021/05/30 02:36:40;;;;;;;12.45;10.48;;;15.90;55.00;;;;;;1480592;40;20138;-62
2021/05/30 02:38:03;;;;;;;14.65;10.68;;;15.90;55.10;;;;;;1482550;40;20069;-62
2021/05/30 02:39:24;;;;;;;14.50;10.48;;;15.90;55.10;;;;;;1482707;40;20041;-62
2021/05/30 02:40:45;;;;;;;11.82;10.35;;;15.90;55.00;;;;;;1481523;40;20051;-62
2021/05/30 02:42:07;;;;;;;11.88;10.48;;;15.90;55.10;;;;;;1481853;40;20273;-62
2021/05/30 02:43:28;;;;;;;12.52;10.75;;;15.80;55.10;;;;;;1481951;40;20036;-63
2021/05/30 02:44:49;;;;;;;14.30;10.65;;;15.80;55.10;;;;;;1482325;40;20037;-62
2021/05/30 02:46:10;;;;;;;12.80;10.93;;;15.80;55.10;;;;;;1480901;40;20397;-62
2021/05/30 02:47:31;;;;;;;14.50;11.38;;;15.80;55.10;;;;;;1483533;40;20029;-63
2021/05/30 02:48:51;;;;;;;12.95;11.07;;;15.80;55.30;;;;;;1483871;40;20397;-63
2021/05/30 02:50:12;;;;;;;14.48;10.63;;;15.80;55.30;;;;;;1482442;40;20033;-62
2021/05/30 02:51:34;;;;;;;12.30;10.32;;;15.80;55.30;;;;;;1482673;40;20037;-62
2021/05/30 02:52:54;;;;;;;12.65;10.70;;;15.80;55.30;;;;;;1483725;40;20102;-63
2021/05/30 02:54:15;;;;;;;11.48;10.23;;;15.80;55.30;;;;;;1481294;40;20043;-63
2021/05/30 02:55:36;;;;;;;12.25;10.15;;;15.80;55.40;;;;;;1483898;40;20281;-62
2021/05/30 02:56:57;;;;;;;15.38;11.32;;;15.70;55.30;;;;;;1482046;40;20031;-63
2021/05/30 02:58:18;;;;;;;12.95;11.20;;;15.70;55.40;;;;;;1482708;40;20342;-62
2021/05/30 02:59:39;;;;;;;14.90;11.30;;;15.70;55.50;;;;;;1481767;40;20125;-62
2021/05/30 03:00:59;;;;;;;14.88;11.63;;;15.70;55.60;;;;;;1480485;40;20424;-62
2021/05/30 03:02:20;;;;;;;13.40;11.48;;;15.70;55.60;;;;;;1482559;40;20094;-62
2021/05/30 03:03:41;;;;;;;13.30;11.05;;;15.70;55.70;;;;;;1482235;40;20039;-62
2021/05/30 03:05:07;;;;;;;13.32;11.43;;;15.70;55.70;;;;;;1481820;40;20390;-62
2021/05/30 03:06:28;;;;;;;13.15;10.77;;;15.70;55.90;;;;;;1482536;40;20051;-62
2021/05/30 03:07:49;;;;;;;12.85;10.55;;;15.70;55.70;;;;;;1481993;40;20041;-63
2021/05/30 03:09:10;;;;;;;12.68;10.45;;;15.70;55.70;;;;;;1482196;40;20033;-62
2021/05/30 03:10:31;;;;;;;13.95;10.55;;;15.60;55.80;;;;;;1481151;40;20029;-62
2021/05/30 03:11:51;;;;;;;11.68;9.85;;;15.60;55.80;;;;;;1481443;40;20029;-62
2021/05/30 03:13:12;;;;;;;10.90;9.80;;;15.60;55.70;;;;;;1483590;40;20012;-62
2021/05/30 03:14:33;;;;;;;13.93;10.60;;;15.60;55.70;;;;;;1482890;40;20033;-62
2021/05/30 03:15:54;;;;;;;11.95;9.98;;;15.60;55.70;;;;;;1481287;40;20410;-63
2021/05/30 03:17:15;;;;;;;13.23;10.45;;;15.60;55.70;;;;;;1481968;40;20029;-62
2021/05/30 03:18:36;;;;;;;13.00;10.93;;;15.60;55.70;;;;;;1484356;40;20032;-63
2021/05/30 03:19:57;;;;;;;15.18;10.93;;;15.60;55.80;;;;;;1481927;40;20024;-62
2021/05/30 03:21:18;;;;;;;13.25;11.15;;;15.60;55.90;;;;;;1482241;40;20029;-62
2021/05/30 03:22:39;;;;;;;13.75;11.18;;;15.60;56.00;;;;;;1483124;40;20040;-62
2021/05/30 03:24:00;;;;;;;12.07;10.45;;;15.60;56.00;;;;;;1481326;40;20041;-63
2021/05/30 03:25:21;;;;;;;13.10;10.63;;;15.50;56.00;;;;;;1484141;40;20371;-62
2021/05/30 03:26:42;;;;;;;11.45;9.68;;;15.50;56.00;;;;;;1482438;40;20040;-62
2021/05/30 03:28:04;;;;;;;12.15;10.73;;;15.50;56.00;;;;;;1482379;40;20145;-62
2021/05/30 03:29:25;;;;;;;13.02;11.23;;;15.50;56.00;;;;;;1483192;40;20029;-63
2021/05/30 03:30:46;;;;;;;13.52;10.60;;;15.50;56.10;;;;;;1481735;40;20130;-62
2021/05/30 03:32:07;;;;;;;15.27;10.77;;;15.50;56.10;;;;;;1480219;40;20033;-62
2021/05/30 03:33:28;;;;;;;12.63;10.07;;;15.50;56.10;;;;;;1480422;40;20036;-62
2021/05/30 03:34:49;;;;;;;14.18;11.00;;;15.50;56.20;;;;;;1481567;40;20048;-62
2021/05/30 03:36:15;;;;;;;13.35;11.15;;;15.40;56.20;;;;;;1481876;40;20041;-62
2021/05/30 03:37:36;;;;;;;11.93;9.60;;;15.40;56.10;;;;;;1481947;40;20025;-62
2021/05/30 03:39:08;;;;;;;10.63;9.05;;;15.50;56.10;;;;;;1482187;40;20036;-63
2021/05/30 03:40:33;;;;;;;12.65;9.73;;;15.40;56.00;;;;;;1484059;40;20040;-62
2021/05/30 03:41:55;;;;;;;11.50;9.75;;;15.40;56.00;;;;;;1483436;40;20689;-62
2021/05/30 03:43:16;;;;;;;13.70;11.48;;;15.40;56.10;;;;;;1481774;40;20397;-63
2021/05/30 03:44:37;;;;;;;14.27;11.55;;;15.40;56.20;;;;;;1481207;40;20376;-62
2021/05/30 03:45:58;;;;;;;11.75;10.43;;;15.40;56.00;;;;;;1484179;40;20040;-62
2021/05/30 03:47:19;;;;;;;13.52;10.70;;;15.40;56.00;;;;;;1483293;40;20110;-62
2021/05/30 03:48:40;;;;;;;12.55;10.77;;;15.40;56.10;;;;;;1479249;40;20082;-63
2021/05/30 03:50:00;;;;;;;12.38;10.55;;;15.30;56.10;;;;;;1480859;40;20017;-62
2021/05/30 03:51:21;;;;;;;14.30;10.60;;;15.30;56.10;;;;;;1480777;40;20114;-62
2021/05/30 03:52:42;;;;;;;13.38;10.13;;;15.30;56.10;;;;;;1482342;40;20032;-62
2021/05/30 03:54:04;;;;;;;13.35;11.20;;;15.30;56.20;;;;;;1480693;40;20029;-62
2021/05/30 03:55:25;;;;;;;13.38;11.07;;;15.30;56.30;;;;;;1483118;40;20037;-62
2021/05/30 03:56:46;;;;;;;12.50;10.93;;;15.30;56.30;;;;;;1480338;40;20030;-62
2021/05/30 03:58:07;;;;;;;11.13;9.93;;;15.20;56.30;;;;;;1483351;40;20296;-62
2021/05/30 03:59:28;;;;;;;11.05;9.73;;;15.20;56.30;;;;;;1479727;40;20025;-63
2021/05/30 04:00:49;;;;;;;11.93;10.25;;;15.20;56.30;;;;;;1480391;40;20029;-62
2021/05/30 04:02:10;;;;;;;11.40;9.80;;;15.20;56.30;;;;;;1481648;40;20041;-62
2021/05/30 04:03:31;;;;;;;13.32;10.40;;;15.20;56.20;;;;;;1482936;40;20281;-62
2021/05/30 04:04:52;;;;;;;12.23;10.00;;;15.20;56.30;;;;;;1481632;40;20033;-63
2021/05/30 04:06:13;;;;;;;12.50;10.30;;;15.20;56.30;;;;;;1481490;40;20040;-62
2021/05/30 04:07:35;;;;;;;11.60;9.55;;;15.20;56.40;;;;;;1483528;40;20036;-62
2021/05/30 04:08:56;;;;;;;11.10;9.45;;;15.20;56.40;;;;;;1476481;40;20081;-63
2021/05/30 04:10:17;;;;;;;12.27;10.38;;;15.20;56.30;;;;;;1482347;40;20159;-62
2021/05/30 04:11:38;;;;;;;12.40;10.35;;;15.20;56.40;;;;;;1480428;40;20028;-63
2021/05/30 04:12:59;;;;;;;11.75;10.45;;;15.20;56.60;;;;;;1482159;40;20033;-62
2021/05/30 04:14:20;;;;;;;14.02;10.90;;;15.20;56.70;;;;;;1481371;40;20103;-62
2021/05/30 04:15:41;;;;;;;14.55;10.95;;;15.20;56.70;;;;;;1483358;40;20033;-62
2021/05/30 04:17:02;;;;;;;11.77;10.07;;;15.20;56.70;;;;;;1482302;40;20021;-62
2021/05/30 04:18:23;;;;;;;12.10;10.32;;;15.20;56.70;;;;;;1482488;40;20064;-62
2021/05/30 04:19:44;;;;;;;12.80;10.90;;;15.20;56.80;;;;;;1481406;40;20029;-62
2021/05/30 04:21:05;;;;;;;13.30;10.98;;;15.20;56.80;;;;;;1481150;40;20388;-62
2021/05/30 04:22:26;;;;;;;15.40;11.82;;;15.20;56.90;;;;;;1482611;40;20717;-62
2021/05/30 04:23:47;;;;;;;15.38;11.15;;;15.20;57.00;;;;;;1483827;40;20037;-62
2021/05/30 04:25:09;;;;;;;14.75;10.98;;;15.20;57.20;;;;;;1483459;40;20130;-62
2021/05/30 04:26:30;;;;;;;14.80;10.35;;;15.20;57.20;;;;;;1481144;40;20033;-62
2021/05/30 04:27:51;;;;;;;13.38;10.90;;;15.20;57.20;;;;;;1481844;40;20029;-62
2021/05/30 04:29:12;;;;;;;13.68;10.27;;;15.20;57.20;;;;;;1481866;40;20029;-62
2021/05/30 04:30:33;;;;;;;12.10;10.75;;;15.20;57.30;;;;;;1482112;40;20133;-62
2021/05/30 04:31:54;;;;;;;13.60;11.70;;;15.10;57.30;;;;;;1479887;40;20278;-62
2021/05/30 04:33:15;;;;;;;15.25;11.73;;;15.10;57.30;;;;;;1481014;40;20028;-62
2021/05/30 04:34:36;;;;;;;15.77;11.07;;;15.20;57.40;;;;;;1482024;40;20057;-63
2021/05/30 04:35:56;;;;;;;14.15;11.65;;;15.20;57.40;;;;;;1482619;40;20076;-62
2021/05/30 04:37:17;;;;;;;16.98;11.23;;;15.20;57.60;;;;;;1482859;40;20029;-63
2021/05/30 04:38:38;;;;;;;12.95;11.35;;;15.20;57.60;;;;;;1481564;40;20041;-63
2021/05/30 04:40:00;;;;;;;13.52;10.85;;;15.20;57.60;;;;;;1482425;40;20017;-62
2021/05/30 04:41:20;;;;;;;14.48;11.07;;;15.20;57.70;;;;;;1480596;40;20048;-62
2021/05/30 04:42:41;;;;;;;15.75;11.75;;;15.20;57.70;;;;;;1481645;40;20040;-62
2021/05/30 04:44:02;;;;;;;16.33;11.60;;;15.20;57.70;;;;;;1482715;40;20048;-62
2021/05/30 04:45:23;;;;;;;15.25;11.57;;;15.20;57.90;;;;;;1481695;40;20029;-63
2021/05/30 04:46:44;;;;;;;14.52;11.70;;;15.20;57.90;;;;;;1482548;40;20025;-62
2021/05/30 04:48:05;;;;;;;17.08;11.68;;;15.20;58.00;;;;;;1481858;40;20025;-62
2021/05/30 04:49:26;;;;;;;15.02;11.68;;;15.30;58.10;;;;;;1482301;40;20041;-62
2021/05/30 04:51:05;;;;;;;14.77;12.02;;;15.30;58.10;;;;;;1481688;40;20074;-62
2021/05/30 04:52:26;;;;;;;16.40;12.85;;;15.30;58.20;;;;;;1482798;40;20416;-63
2021/05/30 04:53:47;;;;;;;13.75;11.52;;;15.30;58.20;;;;;;1482316;40;20025;-62
2021/05/30 04:55:11;;;;;;;15.73;12.38;;;15.30;58.20;;;;;;1483362;40;20040;-62
2021/05/30 04:56:32;;;;;;;14.95;12.18;;;15.30;58.30;;;;;;1482848;40;20025;-63
2021/05/30 04:57:53;;;;;;;15.68;11.60;;;15.30;58.20;;;;;;1482245;40;20029;-62
2021/05/30 04:59:14;;;;;;;14.05;11.80;;;15.30;58.20;;;;;;1482282;40;20021;-62
2021/05/30 05:00:35;;;;;;;15.15;11.93;;;15.30;58.40;;;;;;1480776;40;20041;-62
2021/05/30 05:01:56;;;;;;;15.85;12.30;;;15.30;58.50;;;;;;1481292;40;20041;-62
2021/05/30 05:03:17;;;;;;;16.52;12.32;;;15.30;58.50;;;;;;1480934;40;20048;-63
2021/05/30 05:04:37;;;;;;;16.10;12.60;;;15.30;59.10;;;;;;1481339;40;20044;-62
2021/05/30 05:05:59;;;;;;;14.05;12.15;;;15.30;58.60;;;;;;1479325;40;20345;-62
2021/05/30 05:07:20;;;;;;;17.40;12.35;;;15.40;58.70;;;;;;1481278;40;20113;-63
2021/05/30 05:08:40;;;;;;;14.45;12.27;;;15.40;58.70;;;;;;1483318;40;20040;-62
2021/05/30 05:10:03;;;;;;;15.60;12.40;;;15.40;58.70;;;;;;1482561;40;20032;-62
2021/05/30 05:11:24;;;;;;;17.23;12.93;;;15.40;58.90;;;;;;1483560;40;20024;-62
2021/05/30 05:12:45;;;;;;;16.42;13.25;;;15.40;58.90;;;;;;1482764;40;20029;-62
2021/05/30 05:14:06;;;;;;;17.13;13.38;;;15.40;58.90;;;;;;1481505;40;20040;-62
2021/05/30 05:15:26;;;;;;;17.02;12.55;;;15.40;58.90;;;;;;1483837;40;20369;-62
2021/05/30 05:16:47;;;;;;;17.90;13.27;;;15.40;59.00;;;;;;1481610;40;20060;-62
2021/05/30 05:18:22;;;;;;;17.27;13.38;;;15.50;59.00;;;;;;1482700;40;20037;-63
2021/05/30 05:19:43;;;;;;;16.50;12.65;;;15.50;59.20;;;;;;1481909;40;20106;-62
2021/05/30 05:21:05;;;;;;;17.58;13.50;;;15.50;59.00;;;;;;1482177;39;20090;-62
2021/05/30 05:22:26;;;;;;;17.85;14.35;;;15.50;59.00;;;;;;1483228;40;20029;-62
2021/05/30 05:23:47;;;;;;;17.90;13.35;;;15.50;59.00;;;;;;1483087;40;20040;-63
2021/05/30 05:25:09;;;;;;;18.45;14.68;;;15.50;59.00;;;;;;1483730;40;20021;-62
2021/05/30 05:26:30;;;;;;;18.13;14.50;;;15.50;59.10;;;;;;1481707;40;20360;-62
2021/05/30 05:27:50;;;;;;;20.25;14.02;;;15.50;59.10;;;;;;1482332;40;20076;-62
2021/05/30 05:29:11;;;;;;;15.75;13.13;;;15.60;59.20;;;;;;1483260;40;20031;-63
2021/05/30 05:30:33;;;;;;;16.40;13.40;;;15.60;59.20;;;;;;1482206;40;20017;-62
2021/05/30 05:31:53;;;;;;;15.73;13.40;;;15.60;59.30;;;;;;1481244;40;20048;-62
2021/05/30 05:33:14;;;;;;;16.77;13.07;;;15.60;59.30;;;;;;1482501;40;20032;-62
2021/05/30 05:34:35;;;;;;;16.52;13.02;;;15.60;59.30;;;;;;1481488;40;20122;-63
2021/05/30 05:35:56;;;;;;;15.60;12.85;;;15.70;59.30;;;;;;1481981;40;20041;-63
2021/05/30 05:37:17;;;;;;;20.50;13.95;;;15.60;59.30;;;;;;1487031;40;20044;-63
2021/05/30 05:38:38;;;;;;;17.73;13.65;;;15.70;59.40;;;;;;1483676;40;20020;-62
2021/05/30 05:39:59;;;;;;;19.48;14.20;;;15.70;59.40;;;;;;1482497;40;20040;-62
2021/05/30 05:41:20;;;;;;;17.70;13.68;;;15.70;59.30;;;;;;1479043;40;20162;-63
2021/05/30 05:42:41;;;;;;;17.52;13.75;;;15.70;59.30;;;;;;1481659;40;20470;-62
2021/05/30 05:44:02;;;;;;;15.80;13.55;;;15.70;59.30;;;;;;1482206;40;20397;-62
2021/05/30 05:45:24;;;;;;;16.45;13.52;;;15.80;59.40;;;;;;1483435;40;20055;-62
2021/05/30 05:46:45;;;;;;;18.92;13.43;;;15.80;59.40;;;;;;1481733;40;20052;-62
2021/05/30 05:48:15;;;;;;;17.17;13.07;;;15.80;59.30;;;;;;1481954;40;20047;-62
2021/05/30 05:49:36;;;;;;;16.60;13.70;;;15.80;59.30;;;;;;1482341;40;20025;-63
2021/05/30 05:50:56;;;;;;;16.50;13.05;;;15.80;59.20;;;;;;1480316;40;20033;-63
2021/05/30 05:52:17;;;;;;;18.13;13.48;;;15.90;59.20;;;;;;1481564;40;20336;-64
2021/05/30 05:53:39;;;;;;;16.05;12.52;;;15.90;59.20;;;;;;1480871;40;20025;-63
2021/05/30 05:55:00;;;;;;;18.17;14.05;;;15.90;59.20;;;;;;1483173;40;20416;-63
2021/05/30 05:56:20;;;;;;;14.52;12.45;;;15.90;59.20;;;;;;1481854;40;20043;-63
2021/05/30 05:57:43;;;;;;;15.73;13.10;;;15.90;59.30;;;;;;1481912;40;20044;-62
2021/05/30 05:59:04;;;;;;;16.58;13.10;;;16.00;59.20;;;;;;1481622;40;20033;-63
2021/05/30 06:00:24;;;;;;;16.17;12.93;;;16.00;59.20;;;;;;1481892;40;20354;-62
2021/05/30 06:01:45;;;;;;;16.50;13.05;;;16.00;59.20;;;;;;1482115;40;20041;-63
2021/05/30 06:03:06;;;;;;;17.98;13.18;;;16.00;59.10;;;;;;1481256;40;20045;-63
2021/05/30 06:04:27;;;;;;;15.50;12.90;;;16.00;59.10;;;;;;1482519;40;20098;-62
2021/05/30 06:05:48;;;;;;;16.60;13.00;;;16.00;59.00;;;;;;1480918;40;20039;-63
2021/05/30 06:07:09;;;;;;;18.70;13.07;;;16.10;59.00;;;;;;1480200;40;20058;-62
2021/05/30 06:08:30;;;;;;;16.02;12.10;;;16.10;59.00;;;;;;1483048;40;20027;-63
2021/05/30 06:09:51;;;;;;;17.25;13.48;;;16.10;59.00;;;;;;1482339;40;20098;-63
2021/05/30 06:11:12;;;;;;;15.07;12.48;;;16.10;59.00;;;;;;1481438;40;20036;-63
2021/05/30 06:12:33;;;;;;;16.90;13.80;;;16.10;59.00;;;;;;1480204;40;20059;-63
2021/05/30 06:13:54;;;;;;;16.58;13.10;;;16.20;58.90;;;;;;1481450;40;20087;-63
2021/05/30 06:15:16;;;;;;;17.55;12.15;;;16.20;58.90;;;;;;1480966;40;20273;-63
2021/05/30 06:16:37;;;;;;;15.05;12.52;;;16.20;59.00;;;;;;1479965;40;20025;-63
2021/05/30 06:18:02;;;;;;;16.65;13.90;;;16.20;59.00;;;;;;1482488;40;20275;-62
2021/05/30 06:19:25;;;;;;;17.77;13.70;;;16.30;59.00;;;;;;1478148;40;20096;-63
2021/05/30 06:20:46;;;;;;;16.85;12.55;;;16.30;58.90;;;;;;1480626;40;20126;-63
2021/05/30 06:22:08;;;;;;;16.90;13.80;;;16.30;59.00;;;;;;1481418;40;20032;-62
2021/05/30 06:23:29;;;;;;;15.93;13.02;;;16.30;58.90;;;;;;1482525;40;20264;-63
2021/05/30 06:24:50;;;;;;;16.67;12.63;;;16.40;59.00;;;;;;1481747;40;20052;-62
2021/05/30 06:26:11;;;;;;;18.15;13.25;;;16.40;59.00;;;;;;1480674;40;20090;-63
2021/05/30 06:27:32;;;;;;;15.82;12.85;;;16.40;59.00;;;;;;1482583;40;20368;-63
2021/05/30 06:28:52;;;;;;;16.08;12.90;;;16.40;58.90;;;;;;1481218;40;20037;-62
2021/05/30 06:30:14;;;;;;;14.48;12.32;;;16.40;58.80;;;;;;1482961;40;20384;-63
2021/05/30 06:31:35;;;;;;;16.02;12.40;;;16.50;58.70;;;;;;1486482;40;20107;-64
2021/05/30 06:32:56;;;;;;;16.38;12.20;;;16.50;58.60;;;;;;1483920;40;20052;-65
2021/05/30 06:34:17;;;;;;;17.10;12.10;;;16.60;58.60;;;;;;1482018;40;20117;-63
2021/05/30 06:35:40;;;;;;;15.82;12.60;;;16.60;58.70;;;;;;1480803;40;20117;-63
2021/05/30 06:37:01;;;;;;;16.30;12.70;;;16.60;58.60;;;;;;1480179;40;20078;-63
2021/05/30 06:38:22;;;;;;;15.80;12.20;;;16.60;58.50;;;;;;1480205;40;20040;-63
2021/05/30 06:39:44;;;;;;;16.83;12.65;;;16.70;58.50;;;;;;1481635;40;20025;-62
2021/05/30 06:41:05;;;;;;;16.40;11.07;;;16.70;58.40;;;;;;1481860;40;20033;-63
2021/05/30 06:42:26;;;;;;;13.13;10.70;;;16.70;58.20;;;;;;1483059;40;20033;-64
2021/05/30 06:43:51;;;;;;;12.13;10.52;;;16.70;58.10;;;;;;1481834;40;20029;-64
2021/05/30 06:45:12;;;;;;;13.50;10.82;;;16.70;58.10;;;;;;1484375;40;20027;-65
2021/05/30 06:46:34;;;;;;;15.57;11.65;;;16.80;58.00;;;;;;1481324;40;20032;-63
2021/05/30 06:47:56;;;;;;;14.23;10.98;;;16.80;57.90;;;;;;1481170;40;20017;-63
2021/05/30 06:49:17;;;;;;;14.02;10.77;;;16.80;57.90;;;;;;1482375;40;20257;-63
2021/05/30 06:50:38;;;;;;;12.52;9.93;;;16.90;58.00;;;;;;1482306;40;20303;-63
2021/05/30 06:51:59;;;;;;;12.27;10.00;;;16.90;57.90;;;;;;1481355;40;20354;-63
2021/05/30 06:53:20;;;;;;;13.25;9.88;;;16.90;57.80;;;;;;1482221;40;20036;-63
2021/05/30 06:54:40;;;;;;;10.65;8.50;;;17.00;57.70;;;;;;1481661;40;20570;-63
2021/05/30 06:56:01;;;;;;;11.32;9.30;;;17.00;57.50;;;;;;1482033;40;20043;-62